Time;durP1;ratioP1;P1;durP2;ratioP2;P2;SDS_P1;SDS_P2;PMS_P1;PMS_P2;Temp;Humidity;BMP_temperature;BMP_pressure;BME280_temperature;BME280_humidity;BME280_pressure;Samples;Min_cycle;Max_cycle;Signal;HPM_P1;HPM_P2
2021/12/23 00:00:46;;;;;;;25.40;15.87;;;;;;;-4.33;100.00;150270.88;5052867;28;20445;-73
2021/12/23 00:03:23;;;;;;;28.77;16.50;;;;;;;-4.30;100.00;150278.56;5052484;28;20461;-73
2021/12/23 00:05:59;;;;;;;31.47;18.50;;;;;;;-4.32;100.00;150273.44;5067177;28;21011;-73
2021/12/23 00:08:35;;;;;;;32.60;17.97;;;;;;;-4.28;100.00;150283.66;5080320;28;20446;-73
2021/12/23 00:11:10;;;;;;;31.57;17.80;;;;;;;-4.26;100.00;150288.75;5049122;28;20443;-73
2021/12/23 00:13:58;;;;;;;30.20;17.07;;;;;;;-4.26;100.00;150287.50;5049063;28;20569;-73
2021/12/23 00:16:43;;;;;;;32.20;17.67;;;;;;;-4.33;100.00;150272.16;5033076;28;20440;-73
2021/12/23 00:19:34;;;;;;;26.43;17.47;;;;;;;-4.36;100.00;150263.19;5034455;28;20858;-73
2021/12/23 00:25:04;;;;;;;30.77;16.90;;;;;;;-4.39;100.00;150256.81;5067282;28;20429;-73
2021/12/23 00:27:40;;;;;;;32.40;17.63;;;;;;;-4.40;100.00;150254.28;5054042;28;20439;-73
2021/12/23 00:30:15;;;;;;;30.93;19.40;;;;;;;-4.43;100.00;150246.63;5017449;28;20434;-73
2021/12/23 00:32:51;;;;;;;28.07;17.50;;;;;;;-4.44;100.00;150242.75;5070663;28;20460;-73
2021/12/23 00:35:28;;;;;;;30.03;18.97;;;;;;;-4.49;100.00;150229.97;5044755;28;20943;-73
2021/12/23 00:38:12;;;;;;;27.43;16.43;;;;;;;-4.49;100.00;150229.97;5045112;28;20443;-73
2021/12/23 00:40:48;;;;;;;25.73;15.07;;;;;;;-4.51;100.00;150224.88;5042647;28;20805;-73
2021/12/23 00:43:24;;;;;;;31.53;17.33;;;;;;;-4.51;100.00;150224.88;5036793;28;20476;-73
2021/12/23 00:46:00;;;;;;;30.20;16.70;;;;;;;-4.51;100.00;150224.88;5036951;28;20435;-73
2021/12/23 00:48:36;;;;;;;28.60;16.23;;;;;;;-4.46;100.00;150237.66;5053696;28;20545;-73
2021/12/23 00:51:14;;;;;;;26.37;16.60;;;;;;;-4.48;100.00;150232.56;5052663;28;20428;-73
2021/12/23 00:53:52;;;;;;;29.77;17.77;;;;;;;-4.47;100.00;150236.38;5036400;28;20442;-73
2021/12/23 00:56:27;;;;;;;33.10;19.27;;;;;;;-4.48;100.00;150233.84;5036077;28;20451;-73
2021/12/23 00:59:04;;;;;;;26.97;16.63;;;;;;;-4.49;100.00;150229.97;5050713;28;20480;-73
2021/12/23 01:01:40;;;;;;;29.57;17.60;;;;;;;-4.49;100.00;150229.97;5051702;28;20530;-73
2021/12/23 01:04:16;;;;;;;25.50;17.20;;;;;;;-4.51;100.00;150224.88;5051272;28;20432;-73
2021/12/23 01:06:53;;;;;;;26.57;17.43;;;;;;;-4.50;100.00;150227.44;5036111;28;20435;-73
2021/12/23 01:09:29;;;;;;;27.57;16.43;;;;;;;-4.49;100.00;150231.25;5051779;28;20443;-73
2021/12/23 01:12:06;;;;;;;26.33;17.03;;;;;;;-4.56;100.00;150212.09;5050811;28;20476;-73
2021/12/23 01:14:52;;;;;;;28.97;16.40;;;;;;;-4.56;100.00;150212.09;5030040;28;20551;-73
2021/12/23 01:17:46;;;;;;;32.10;17.10;;;;;;;-4.58;100.00;150208.25;5065217;28;20560;-73
2021/12/23 01:20:26;;;;;;;27.47;16.40;;;;;;;-4.49;100.00;150229.97;5047229;28;20440;-73
2021/12/23 01:23:06;;;;;;;25.37;14.70;;;;;;;-4.50;100.00;150227.44;5048994;28;20481;-73
2021/12/23 01:25:41;;;;;;;29.40;17.27;;;;;;;-4.46;100.00;150238.94;5051560;28;20434;-73
2021/12/23 01:28:17;;;;;;;25.77;15.87;;;;;;;-4.46;100.00;150237.66;5035889;28;20515;-73
2021/12/23 01:30:53;;;;;;;28.00;15.90;;;;;;;-4.50;100.00;150227.44;5046174;28;20532;-73
2021/12/23 01:33:28;;;;;;;31.40;16.00;;;;;;;-4.45;100.00;150240.22;5038215;28;20515;-73
2021/12/23 01:36:04;;;;;;;27.37;16.00;;;;;;;-4.39;100.00;150255.53;5034524;28;20469;-73
2021/12/23 01:38:41;;;;;;;25.37;14.97;;;;;;;-4.37;100.00;150260.69;5051439;28;20453;-73
2021/12/23 01:41:17;;;;;;;23.97;15.17;;;;;;;-4.31;100.00;150275.97;5050465;28;20514;-73
2021/12/23 01:43:53;;;;;;;28.20;16.33;;;;;;;-4.29;100.00;150281.13;5050936;28;20455;-73
2021/12/23 01:46:29;;;;;;;31.03;17.07;;;;;;;-4.28;100.00;150283.66;5035000;28;20791;-73
2021/12/23 01:49:05;;;;;;;28.10;16.00;;;;;;;-4.27;100.00;150286.22;5050028;28;20439;-73
2021/12/23 01:51:40;;;;;;;22.30;14.90;;;;;;;-4.31;100.00;150277.28;5050430;28;20550;-73
2021/12/23 01:54:17;;;;;;;23.90;15.33;;;;;;;-4.26;100.00;150288.75;5050611;28;20552;-73
2021/12/23 01:56:53;;;;;;;26.40;15.20;;;;;;;-4.24;100.00;150293.91;5051034;28;20461;-73
2021/12/23 01:59:29;;;;;;;26.43;16.23;;;;;;;-4.26;100.00;150288.75;5050581;28;20698;-73
2021/12/23 02:02:05;;;;;;;28.20;15.73;;;;;;;-4.25;100.00;150290.03;5050264;28;20455;-73
2021/12/23 02:04:40;;;;;;;35.60;18.30;;;;;;;-4.26;100.00;150288.75;5049677;28;20433;-73
2021/12/23 02:07:17;;;;;;;23.30;15.50;;;;;;;-4.25;100.00;150291.31;5016200;28;20801;-73
2021/12/23 02:09:56;;;;;;;31.50;14.77;;;;;;;-4.19;100.00;150306.69;5038703;28;20487;-73
2021/12/23 02:12:31;;;;;;;24.93;16.03;;;;;;;-4.19;100.00;150306.69;5035864;28;20477;-73
2021/12/23 02:15:08;;;;;;;25.17;15.20;;;;;;;-4.23;100.00;150295.16;5042317;28;20476;-73
2021/12/23 02:17:44;;;;;;;25.07;15.17;;;;;;;-4.20;100.00;150304.09;5034938;28;20451;-73
2021/12/23 02:20:22;;;;;;;26.40;16.40;;;;;;;-4.20;100.00;150304.09;5039346;28;20453;-73
2021/12/23 02:22:59;;;;;;;22.00;13.50;;;;;;;-4.18;100.00;150309.22;5042469;28;20549;-73
2021/12/23 02:25:35;;;;;;;28.43;14.73;;;;;;;-4.21;100.00;150300.28;5064082;28;20526;-73
2021/12/23 02:28:10;;;;;;;27.40;16.00;;;;;;;-4.22;100.00;150299.00;5045152;28;20951;-73
2021/12/23 02:30:51;;;;;;;23.73;15.70;;;;;;;-4.23;100.00;150295.16;5049710;28;20801;-73
2021/12/23 02:33:27;;;;;;;28.27;16.83;;;;;;;-4.22;100.00;150297.72;5034822;28;20472;-73
2021/12/23 02:36:05;;;;;;;23.80;14.60;;;;;;;-4.22;100.00;150299.00;5044400;28;20467;-73
2021/12/23 02:38:40;;;;;;;24.60;16.13;;;;;;;-4.26;100.00;150288.75;5068167;28;20452;-73
2021/12/23 02:41:16;;;;;;;26.17;16.40;;;;;;;-4.28;100.00;150283.66;5065578;28;20944;-73
2021/12/23 02:43:52;;;;;;;24.10;14.10;;;;;;;-4.31;100.00;150275.97;5043304;28;20454;-73
2021/12/23 02:46:27;;;;;;;29.03;16.70;;;;;;;-4.29;100.00;150281.13;5050708;28;20441;-73
2021/12/23 02:49:04;;;;;;;27.27;14.90;;;;;;;-4.29;100.00;150279.84;5050547;28;20441;-73
2021/12/23 02:51:41;;;;;;;26.60;15.37;;;;;;;-4.30;100.00;150278.56;5049618;28;20440;-73
2021/12/23 02:54:16;;;;;;;28.57;15.77;;;;;;;-4.24;100.00;150292.63;5082470;28;20436;-73
2021/12/23 02:56:52;;;;;;;23.30;14.77;;;;;;;-4.28;100.00;150283.66;5053424;28;20448;-73
2021/12/23 02:59:28;;;;;;;25.83;14.97;;;;;;;-4.29;100.00;150279.84;5053914;28;20488;-73
2021/12/23 03:02:04;;;;;;;27.00;15.70;;;;;;;-4.29;100.00;150281.13;5037172;28;20549;-73
2021/12/23 03:04:39;;;;;;;23.83;14.33;;;;;;;-4.23;100.00;150296.44;5055163;28;20409;-73
2021/12/23 03:07:17;;;;;;;23.47;15.03;;;;;;;-4.22;99.96;150297.72;5054549;28;20472;-73
2021/12/23 03:09:52;;;;;;;25.60;14.70;;;;;;;-4.21;100.00;150300.28;5038801;28;20446;-73
2021/12/23 03:12:28;;;;;;;21.60;13.50;;;;;;;-4.26;100.00;150288.75;5040088;28;20440;-73
2021/12/23 03:15:05;;;;;;;25.87;15.03;;;;;;;-4.21;100.00;150301.59;5036469;28;20474;-73
2021/12/23 03:17:40;;;;;;;24.00;14.83;;;;;;;-4.18;99.74;150307.97;5067454;28;20465;-73
2021/12/23 03:20:16;;;;;;;23.47;14.13;;;;;;;-4.15;99.54;150316.88;5044144;28;20451;-73
2021/12/23 03:22:53;;;;;;;22.10;14.17;;;;;;;-4.12;99.56;150324.56;5053309;28;20448;-73
2021/12/23 03:25:29;;;;;;;23.53;13.70;;;;;;;-4.09;99.14;150332.25;5038632;28;20424;-73
2021/12/23 03:28:05;;;;;;;22.87;13.50;;;;;;;-4.11;99.68;150327.13;5053441;28;20452;-73
2021/12/23 03:30:40;;;;;;;19.70;13.20;;;;;;;-4.07;99.04;150337.34;5038416;28;20437;-73
2021/12/23 03:33:16;;;;;;;20.37;13.33;;;;;;;-4.04;99.35;150345.03;5056669;28;20464;-73
2021/12/23 03:35:52;;;;;;;23.87;13.07;;;;;;;-4.00;98.78;150355.28;5053091;28;20479;-73
2021/12/23 03:38:29;;;;;;;22.07;13.70;;;;;;;-4.02;98.78;150350.13;5053371;28;20440;-73
2021/12/23 03:41:05;;;;;;;19.33;12.47;;;;;;;-3.96;97.94;150365.47;5051878;28;20534;-73
2021/12/23 03:43:40;;;;;;;23.70;13.50;;;;;;;-3.95;97.58;150368.06;5053545;28;20771;-73
2021/12/23 03:46:16;;;;;;;23.77;14.93;;;;;;;-3.94;97.87;150369.28;5037410;28;20459;-73
2021/12/23 03:48:52;;;;;;;20.13;12.17;;;;;;;-3.88;97.43;150384.66;5044870;28;20451;-73
2021/12/23 03:51:27;;;;;;;18.87;12.80;;;;;;;-3.94;97.90;150369.28;5034508;28;20514;-73
2021/12/23 03:54:04;;;;;;;20.67;12.23;;;;;;;-3.91;97.83;150376.97;5069182;28;20453;-73
2021/12/23 03:56:39;;;;;;;18.90;12.03;;;;;;;-3.89;97.49;150383.34;5037610;28;20465;-73
2021/12/23 03:59:15;;;;;;;20.37;11.70;;;;;;;-3.88;97.53;150385.94;5053056;28;20684;-73
2021/12/23 04:01:50;;;;;;;23.80;12.87;;;;;;;-3.87;97.81;150388.50;5048546;28;20446;-73
2021/12/23 04:04:26;;;;;;;21.90;12.63;;;;;;;-3.85;97.56;150392.31;5047706;28;20525;-73
2021/12/23 04:07:01;;;;;;;18.50;12.10;;;;;;;-3.85;96.95;150393.63;5033350;28;20851;-73
2021/12/23 04:09:38;;;;;;;20.67;12.40;;;;;;;-3.86;97.00;150391.03;5066555;28;20435;-73
2021/12/23 04:12:14;;;;;;;23.10;12.37;;;;;;;-3.83;96.45;150398.72;5037994;28;20486;-73
2021/12/23 04:14:49;;;;;;;21.30;13.10;;;;;;;-3.86;96.94;150389.75;5035853;28;20429;-73
2021/12/23 04:17:25;;;;;;;20.00;13.00;;;;;;;-3.86;97.53;150391.03;5037537;28;20445;-73
2021/12/23 04:20:13;;;;;;;21.47;12.90;;;;;;;-3.90;97.64;150380.84;5051977;28;20444;-73
2021/12/23 04:22:51;;;;;;;18.77;12.07;;;;;;;-3.95;98.06;150366.75;5077443;28;20454;-73
2021/12/23 04:25:28;;;;;;;24.10;13.40;;;;;;;-3.93;98.04;150373.16;5053185;28;20434;-73
2021/12/23 04:28:05;;;;;;;22.00;12.43;;;;;;;-3.93;98.02;150373.16;5086314;28;20457;-73
2021/12/23 04:30:41;;;;;;;20.23;12.70;;;;;;;-3.94;97.90;150370.56;5052285;28;20502;-73
2021/12/23 04:33:16;;;;;;;21.00;13.83;;;;;;;-3.87;98.02;150387.22;5049261;28;20522;-73
2021/12/23 04:35:52;;;;;;;21.53;12.90;;;;;;;-3.86;97.91;150391.03;5048903;28;21177;-73
2021/12/23 04:38:27;;;;;;;19.40;12.80;;;;;;;-3.85;97.82;150393.63;5047544;28;20449;-73
2021/12/23 04:41:04;;;;;;;21.80;13.10;;;;;;;-3.82;97.88;150400.00;5035663;28;20461;-73
2021/12/23 04:43:40;;;;;;;23.73;13.90;;;;;;;-3.78;97.91;150411.50;5048988;28;20456;-73
2021/12/23 04:46:15;;;;;;;19.90;12.63;;;;;;;-3.79;98.63;150408.97;5085927;28;20437;-73
2021/12/23 04:48:51;;;;;;;19.23;12.30;;;;;;;-3.79;98.81;150408.97;5052525;28;20441;-73
2021/12/23 04:51:27;;;;;;;20.00;12.37;;;;;;;-3.79;98.56;150408.97;5036511;28;20554;-73
2021/12/23 04:54:02;;;;;;;25.33;13.00;;;;;;;-3.73;97.97;150423.00;5047281;28;20454;-73
2021/12/23 04:56:40;;;;;;;20.87;12.90;;;;;;;-3.73;98.27;150424.28;5049699;28;20468;-73
2021/12/23 04:59:15;;;;;;;22.87;13.97;;;;;;;-3.77;98.11;150412.78;5032163;28;20446;-73
2021/12/23 05:01:51;;;;;;;20.80;13.37;;;;;;;-3.77;98.46;150412.78;5036273;28;20474;-73
2021/12/23 05:04:27;;;;;;;22.80;13.53;;;;;;;-3.76;98.77;150416.59;5050758;28;20854;-73
2021/12/23 05:07:03;;;;;;;19.33;11.83;;;;;;;-3.74;98.12;150421.75;5051888;28;20543;-73
2021/12/23 05:09:38;;;;;;;23.97;14.60;;;;;;;-3.74;98.04;150421.75;5051013;28;20544;-73
2021/12/23 05:12:15;;;;;;;20.30;13.20;;;;;;;-3.72;98.83;150426.84;5049892;28;20457;-73
2021/12/23 05:14:50;;;;;;;21.63;13.30;;;;;;;-3.69;98.57;150433.25;5048153;28;20536;-73
2021/12/23 05:17:26;;;;;;;21.10;12.87;;;;;;;-3.67;98.29;150438.34;5035366;28;20438;-73
2021/12/23 05:20:01;;;;;;;21.83;12.93;;;;;;;-3.65;98.13;150443.47;5051132;28;20454;-73
2021/12/23 05:22:38;;;;;;;28.73;13.90;;;;;;;-3.63;97.64;150447.31;5036327;28;20456;-73
2021/12/23 05:25:13;;;;;;;23.13;13.43;;;;;;;-3.61;96.88;150452.44;5035334;28;20535;-73
2021/12/23 05:27:54;;;;;;;21.60;11.47;;;;;;;-3.56;96.46;150465.22;5032816;28;20461;-73
2021/12/23 05:30:30;;;;;;;21.50;13.10;;;;;;;-3.56;96.47;150465.22;5035087;28;20449;-72
2021/12/23 05:33:05;;;;;;;19.57;12.73;;;;;;;-3.56;96.71;150465.22;5052452;28;20489;-73
2021/12/23 05:35:52;;;;;;;18.00;11.60;;;;;;;-3.61;96.74;150452.44;5048409;28;20557;-73
2021/12/23 05:38:28;;;;;;;23.33;12.93;;;;;;;-3.64;97.23;150446.03;5035879;28;20507;-73
2021/12/23 05:41:04;;;;;;;19.77;12.17;;;;;;;-3.68;97.18;150435.81;5032330;28;20440;-73
2021/12/23 05:43:41;;;;;;;16.97;10.80;;;;;;;-3.72;96.93;150426.84;5050286;28;20619;-73
2021/12/23 05:46:17;;;;;;;22.90;12.80;;;;;;;-3.73;97.38;150424.28;5032623;28;20437;-73
2021/12/23 05:48:52;;;;;;;23.67;12.43;;;;;;;-3.74;97.00;150421.75;5052939;28;20466;-73
2021/12/23 05:51:28;;;;;;;22.03;12.47;;;;;;;-3.76;97.35;150416.59;5040602;28;20428;-73
2021/12/23 05:54:04;;;;;;;21.30;11.97;;;;;;;-3.77;97.21;150414.06;5043642;28;20449;-73
2021/12/23 05:56:40;;;;;;;21.73;12.80;;;;;;;-3.75;96.73;150419.19;5034428;28;20450;-73
2021/12/23 05:59:16;;;;;;;18.97;12.57;;;;;;;-3.74;96.31;150421.75;5048462;28;20449;-73
2021/12/23 06:01:52;;;;;;;23.57;12.47;;;;;;;-3.72;96.60;150426.84;5026475;28;20457;-73
2021/12/23 06:04:28;;;;;;;22.40;12.97;;;;;;;-3.73;96.38;150424.28;5022599;28;20478;-73
2021/12/23 06:07:04;;;;;;;19.60;12.00;;;;;;;-3.76;96.89;150416.59;5049921;28;20441;-73
2021/12/23 06:09:40;;;;;;;23.67;13.00;;;;;;;-3.76;96.77;150416.59;5051001;28;20447;-73
2021/12/23 06:12:15;;;;;;;19.33;11.90;;;;;;;-3.81;97.36;150402.53;5035361;28;20453;-73
2021/12/23 06:14:52;;;;;;;21.03;11.33;;;;;;;-3.77;96.67;150414.06;5050378;28;20436;-73
2021/12/23 06:17:28;;;;;;;19.90;11.50;;;;;;;-3.77;96.31;150414.06;5048156;28;20564;-73
2021/12/23 06:20:04;;;;;;;17.03;10.50;;;;;;;-3.79;97.02;150408.97;5048740;28;21006;-73
2021/12/23 06:22:40;;;;;;;21.03;11.00;;;;;;;-3.76;96.38;150416.59;5034877;28;20448;-73
2021/12/23 06:25:16;;;;;;;21.87;12.37;;;;;;;-3.77;96.58;150412.78;5034401;28;20451;-73
2021/12/23 06:27:52;;;;;;;20.47;11.27;;;;;;;-3.78;95.72;150411.50;5046276;28;20442;-73
2021/12/23 06:30:28;;;;;;;18.93;12.30;;;;;;;-3.79;95.97;150408.97;5050225;28;20523;-73
2021/12/23 06:33:04;;;;;;;17.97;11.40;;;;;;;-3.78;96.24;150411.50;5049996;28;20475;-73
2021/12/23 06:35:40;;;;;;;22.43;12.67;;;;;;;-3.79;96.42;150408.97;5028749;28;20485;-73
2021/12/23 06:38:16;;;;;;;20.00;11.30;;;;;;;-3.80;96.01;150405.09;5045644;28;20450;-73
2021/12/23 06:40:51;;;;;;;18.17;11.07;;;;;;;-3.81;96.45;150403.81;5050864;28;20518;-73
2021/12/23 06:43:27;;;;;;;24.10;13.83;;;;;;;-3.80;96.61;150406.41;5048536;28;20948;-73
2021/12/23 06:46:04;;;;;;;24.10;13.50;;;;;;;-3.86;97.57;150391.03;5049590;28;20440;-72
2021/12/23 06:48:40;;;;;;;24.13;12.27;;;;;;;-3.83;97.67;150398.72;5032257;28;20453;-73
2021/12/23 06:51:15;;;;;;;21.20;12.40;;;;;;;-3.85;98.25;150393.63;5049724;28;20934;-73
2021/12/23 06:53:51;;;;;;;21.63;14.13;;;;;;;-3.82;97.90;150400.00;5081578;28;21927;-73
2021/12/23 06:56:27;;;;;;;21.30;13.73;;;;;;;-3.82;97.43;150401.28;5048512;28;20990;-73
2021/12/23 06:59:03;;;;;;;24.87;13.83;;;;;;;-3.80;98.31;150405.09;5057301;28;20433;-73
2021/12/23 07:01:40;;;;;;;20.93;12.50;;;;;;;-3.85;97.72;150393.63;5048146;28;20456;-73
2021/12/23 07:04:17;;;;;;;22.00;13.23;;;;;;;-3.90;98.36;150380.84;5041870;28;20947;-73
2021/12/23 07:07:07;;;;;;;22.53;12.83;;;;;;;-3.89;97.89;150383.34;5048641;28;20445;-73
2021/12/23 07:09:43;;;;;;;20.93;12.90;;;;;;;-3.96;99.04;150365.47;5015826;28;20432;-73
2021/12/23 07:12:19;;;;;;;23.63;14.37;;;;;;;-3.98;98.53;150359.09;5008766;28;20446;-73
2021/12/23 07:14:54;;;;;;;21.60;14.30;;;;;;;-3.97;98.66;150361.66;5019582;28;20926;-73
2021/12/23 07:17:31;;;;;;;22.33;13.87;;;;;;;-4.00;98.84;150355.28;4993736;28;20522;-73
2021/12/23 07:20:08;;;;;;;23.37;14.07;;;;;;;-3.97;98.99;150362.91;5010124;28;20434;-73
2021/12/23 07:22:44;;;;;;;20.63;13.90;;;;;;;-3.93;99.23;150371.88;5008898;28;20453;-73
2021/12/23 07:25:20;;;;;;;20.00;13.70;;;;;;;-3.91;99.10;150376.97;5027995;28;20452;-73
2021/12/23 07:27:56;;;;;;;21.37;13.17;;;;;;;-3.90;98.95;150380.84;5043693;28;20467;-73
2021/12/23 07:30:31;;;;;;;23.47;13.47;;;;;;;-3.91;99.61;150378.25;5011601;28;20442;-73
2021/12/23 07:33:08;;;;;;;23.77;15.20;;;;;;;-3.91;99.68;150378.25;5028398;28;20461;-73
2021/12/23 07:35:44;;;;;;;25.77;14.80;;;;;;;-3.89;99.70;150383.34;5029029;28;20786;-73
2021/12/23 07:38:20;;;;;;;19.67;12.63;;;;;;;-3.91;100.00;150378.25;5029694;28;20438;-73
2021/12/23 07:40:56;;;;;;;24.90;14.80;;;;;;;-3.89;99.92;150383.34;5013570;28;20457;-73
2021/12/23 07:46:24;;;;;;;24.87;13.30;;;;;;;-3.89;100.00;150383.34;5021694;28;20439;-73
2021/12/23 07:49:01;;;;;;;23.30;13.77;;;;;;;-3.83;99.78;150398.72;5017318;28;20458;-73
2021/12/23 07:51:37;;;;;;;23.53;14.00;;;;;;;-3.85;99.33;150393.63;5017641;28;20496;-73
2021/12/23 07:54:13;;;;;;;21.77;13.73;;;;;;;-3.84;99.39;150396.16;5029754;28;20550;-73
2021/12/23 07:56:48;;;;;;;24.60;14.87;;;;;;;-3.83;100.00;150397.44;5050182;28;20562;-73
2021/12/23 07:59:24;;;;;;;22.30;13.90;;;;;;;-3.82;100.00;150400.00;5014533;28;20454;-72
2021/12/23 08:02:00;;;;;;;18.17;12.70;;;;;;;-3.82;100.00;150400.00;5032181;28;20840;-73
2021/12/23 08:04:37;;;;;;;18.87;12.53;;;;;;;-3.79;100.00;150408.97;5020261;28;20438;-73
2021/12/23 08:07:13;;;;;;;28.67;15.50;;;;;;;-3.77;100.00;150412.78;5032985;28;20443;-73
2021/12/23 08:09:48;;;;;;;21.00;14.27;;;;;;;-3.74;99.98;150421.75;5033116;28;20415;-73
2021/12/23 08:12:24;;;;;;;23.23;13.97;;;;;;;-3.71;99.89;150429.38;5032767;28;20452;-73
2021/12/23 08:14:59;;;;;;;25.77;14.50;;;;;;;-3.64;100.00;150444.75;5027657;28;20453;-73
2021/12/23 08:17:35;;;;;;;26.47;15.67;;;;;;;-3.58;100.00;150460.09;5026319;28;20473;-73
2021/12/23 08:20:13;;;;;;;22.50;14.63;;;;;;;-3.51;99.67;150479.28;5065649;28;20460;-73
2021/12/23 08:22:49;;;;;;;22.37;14.33;;;;;;;-3.41;99.77;150504.84;5017436;28;20969;-73
2021/12/23 08:25:25;;;;;;;22.70;14.27;;;;;;;-3.30;99.49;150531.72;5012499;28;20446;-73
2021/12/23 08:28:00;;;;;;;23.90;13.87;;;;;;;-3.21;99.48;150556.06;5033317;28;20479;-73
2021/12/23 08:30:39;;;;;;;24.30;14.00;;;;;;;-3.12;99.13;150579.06;5018078;28;20436;-73
2021/12/23 08:33:14;;;;;;;21.97;13.33;;;;;;;-3.00;98.50;150607.22;5024888;28;20465;-73
2021/12/23 08:35:51;;;;;;;21.60;14.20;;;;;;;-2.94;98.69;150623.88;5015725;28;20443;-73
2021/12/23 08:38:27;;;;;;;28.63;15.30;;;;;;;-2.85;98.68;150646.91;5020893;28;20447;-73
2021/12/23 08:41:02;;;;;;;22.70;14.70;;;;;;;-2.87;98.72;150641.78;5016793;28;20439;-73
2021/12/23 08:43:38;;;;;;;23.10;14.73;;;;;;;-2.86;98.98;150643.06;5016944;28;20459;-73
2021/12/23 08:46:13;;;;;;;21.63;13.97;;;;;;;-2.81;98.35;150657.16;5032164;28;20537;-73
2021/12/23 08:48:49;;;;;;;23.27;14.70;;;;;;;-2.77;99.02;150667.38;5017033;28;20447;-73
2021/12/23 08:51:26;;;;;;;28.40;15.93;;;;;;;-2.78;98.29;150663.56;5018148;28;20446;-73
2021/12/23 08:54:02;;;;;;;21.00;13.80;;;;;;;-2.74;98.96;150675.06;5033101;28;20438;-73
2021/12/23 08:56:38;;;;;;;23.80;15.47;;;;;;;-2.71;99.21;150682.75;5031196;28;20462;-73
2021/12/23 08:59:15;;;;;;;24.67;13.80;;;;;;;-2.69;99.43;150686.56;5012342;28;20439;-73
2021/12/23 09:01:50;;;;;;;31.03;15.80;;;;;;;-2.62;99.22;150705.75;5029191;28;20494;-73
2021/12/23 09:04:26;;;;;;;26.87;15.90;;;;;;;-2.55;99.08;150723.72;5022926;28;20447;-73
2021/12/23 09:07:04;;;;;;;24.33;13.50;;;;;;;-2.53;99.42;150727.53;5031613;28;20783;-73
2021/12/23 09:09:39;;;;;;;20.73;13.23;;;;;;;-2.44;99.88;150749.31;5026965;28;20778;-73
2021/12/23 09:12:15;;;;;;;20.67;12.63;;;;;;;-2.31;99.67;150782.59;5031136;28;20441;-73
2021/12/23 09:14:51;;;;;;;22.87;15.07;;;;;;;-2.26;99.41;150795.41;5031882;28;20815;-73
2021/12/23 09:17:27;;;;;;;27.53;15.27;;;;;;;-2.19;99.60;150813.31;5016023;28;20497;-73
2021/12/23 09:20:04;;;;;;;21.00;13.90;;;;;;;-2.17;99.63;150819.72;5016376;28;20460;-73
2021/12/23 09:22:41;;;;;;;25.93;13.97;;;;;;;-2.12;99.29;150831.28;5032329;28;20427;-73
2021/12/23 09:25:24;;;;;;;24.63;15.80;;;;;;;-2.10;99.72;150837.69;5063559;28;20857;-73
2021/12/23 09:28:07;;;;;;;24.67;15.13;;;;;;;-2.00;99.47;150862.00;5022148;28;20445;-73
2021/12/23 09:33:37;;;;;;;26.07;14.07;;;;;;;-2.01;100.00;150860.69;5031233;28;20468;-73
2021/12/23 09:36:13;;;;;;;22.53;13.63;;;;;;;-1.94;99.64;150877.38;5011624;28;20445;-73
2021/12/23 09:38:50;;;;;;;23.83;14.10;;;;;;;-1.87;99.51;150895.28;5014081;28;20483;-73
2021/12/23 09:41:26;;;;;;;22.00;14.33;;;;;;;-1.77;100.00;150919.66;5044719;28;20455;-73
2021/12/23 09:44:02;;;;;;;23.57;14.40;;;;;;;-1.74;99.50;150927.31;5030335;28;20791;-73
2021/12/23 09:46:39;;;;;;;26.90;15.30;;;;;;;-1.65;100.00;150951.69;5030789;28;20432;-73
2021/12/23 09:49:15;;;;;;;21.57;14.03;;;;;;;-1.57;99.79;150972.19;5029457;28;20460;-73
2021/12/23 09:51:51;;;;;;;25.87;14.10;;;;;;;-1.47;100.00;150997.81;5031298;28;20441;-73
2021/12/23 09:54:28;;;;;;;26.03;14.53;;;;;;;-1.40;99.88;151015.72;5064246;28;20523;-73
2021/12/23 09:57:04;;;;;;;23.40;13.90;;;;;;;-1.32;99.83;151034.94;5030228;28;20574;-73
2021/12/23 09:59:41;;;;;;;20.47;13.07;;;;;;;-1.32;99.65;151034.94;5062884;28;20827;-73
2021/12/23 10:02:16;;;;;;;21.30;12.87;;;;;;;-1.17;99.76;151072.13;5029869;28;20461;-73
2021/12/23 10:04:52;;;;;;;21.33;13.73;;;;;;;-1.08;99.70;151095.19;5026697;28;20460;-73
2021/12/23 10:07:27;;;;;;;18.13;12.87;;;;;;;-0.98;99.66;151120.88;5028849;28;20440;-73
2021/12/23 10:10:11;;;;;;;24.10;14.80;;;;;;;-0.86;99.56;151152.91;5010959;28;20447;-73
2021/12/23 10:30:26;;;;;;;20.60;14.37;;;;;;;-0.38;99.86;151274.75;5062221;28;20436;-74
2021/12/23 10:33:28;;;;;;;23.50;14.87;;;;;;;-0.41;99.90;151267.03;5024987;28;20492;-74
2021/12/23 10:38:58;;;;;;;19.60;14.20;;;;;;;-0.34;100.00;151283.69;5029421;28;20437;-74
2021/12/23 10:41:34;;;;;;;25.10;15.37;;;;;;;-0.32;100.00;151290.09;5058320;28;20440;-74
2021/12/23 10:44:11;;;;;;;19.10;13.97;;;;;;;-0.18;100.00;151326.03;5012626;28;20454;-74
2021/12/23 10:46:48;;;;;;;22.23;13.40;;;;;;;-0.07;99.86;151354.28;5005155;28;20528;-73
2021/12/23 10:49:30;;;;;;;23.67;14.90;;;;;;;-0.14;99.49;151335.03;5027693;28;20772;-73
2021/12/23 10:52:10;;;;;;;27.90;15.00;;;;;;;-0.11;99.33;151342.75;5043446;28;20456;-73
2021/12/23 10:58:03;;;;;;;21.57;15.00;;;;;;;-0.05;100.00;151359.41;5002692;28;20475;-73
2021/12/23 11:00:44;;;;;;;23.60;15.20;;;;;;;0.02;100.00;151374.81;5027298;28;20467;-73
2021/12/23 11:03:26;;;;;;;27.03;15.30;;;;;;;0.07;100.00;151388.94;5018874;28;20448;-73
2021/12/23 11:06:09;;;;;;;21.77;15.40;;;;;;;0.17;100.00;151414.59;5060366;28;20547;-73
2021/12/23 11:08:52;;;;;;;22.43;15.77;;;;;;;0.27;100.00;151440.25;5037752;28;20444;-73
2021/12/23 11:12:11;;;;;;;21.33;14.53;;;;;;;0.27;99.98;151440.25;5017723;28;20435;-73
2021/12/23 11:38:31;;;;;;;19.40;13.87;;;;;;;0.72;100.00;151554.50;4997882;28;20465;-74
2021/12/23 11:41:19;;;;;;;18.63;12.30;;;;;;;0.94;99.95;151611.03;5030572;28;20950;-74
2021/12/23 11:43:57;;;;;;;19.40;13.20;;;;;;;0.92;99.33;151605.91;5002079;28;20538;-74
2021/12/23 11:46:38;;;;;;;14.30;12.00;;;;;;;0.99;99.42;151622.56;5065833;28;20441;-74
2021/12/23 11:49:16;;;;;;;17.90;13.13;;;;;;;1.13;99.27;151659.84;5033075;28;20764;-74
2021/12/23 11:51:55;;;;;;;18.40;12.00;;;;;;;1.21;99.31;151680.41;5028374;28;20444;-74
2021/12/23 11:54:32;;;;;;;16.20;12.00;;;;;;;1.29;99.60;151699.66;5016753;28;21028;-74
2021/12/23 11:57:10;;;;;;;16.80;11.87;;;;;;;1.42;98.67;151731.75;5017594;28;20464;-74
2021/12/23 11:59:58;;;;;;;14.30;10.43;;;;;;;1.54;97.81;151762.56;5014321;28;20521;-74
2021/12/23 12:02:34;;;;;;;16.33;11.50;;;;;;;1.56;97.69;151769.00;5022830;28;20456;-74
2021/12/23 12:05:17;;;;;;;15.17;11.63;;;;;;;1.59;97.83;151776.72;5032968;28;20440;-74
2021/12/23 12:08:05;;;;;;;14.47;11.33;;;;;;;1.69;97.06;151802.47;5017009;28;20449;-74
2021/12/23 12:10:42;;;;;;;16.40;10.50;;;;;;;1.77;97.02;151821.72;5064371;28;20542;-74
2021/12/23 12:13:18;;;;;;;15.10;11.67;;;;;;;1.75;97.43;151816.56;5046346;28;20484;-74
2021/12/23 12:15:54;;;;;;;14.27;11.30;;;;;;;1.82;97.30;151835.88;5032554;28;20483;-75
2021/12/23 12:18:29;;;;;;;14.83;10.73;;;;;;;1.76;97.77;151819.13;5026017;28;20472;-75
2021/12/23 12:21:21;;;;;;;16.80;11.60;;;;;;;1.84;97.33;151841.00;5032789;28;20437;-74
2021/12/23 12:24:15;;;;;;;30.17;11.60;;;;;;;1.89;97.24;151852.56;5015480;28;20482;-74
2021/12/23 12:26:56;;;;;;;17.77;12.20;;;;;;;1.97;97.09;151873.13;5032061;28;20461;-74
2021/12/23 12:29:36;;;;;;;18.03;11.93;;;;;;;2.04;96.38;151891.09;5060723;28;20472;-75
2021/12/23 12:32:36;;;;;;;14.90;10.97;;;;;;;2.08;96.81;151900.13;5033306;28;20510;-75
2021/12/23 12:35:13;;;;;;;23.00;13.07;;;;;;;2.04;96.96;151889.84;5027716;28;20452;-74
2021/12/23 12:37:52;;;;;;;15.57;11.03;;;;;;;2.05;96.92;151893.69;5016547;28;20482;-74
2021/12/23 12:40:57;;;;;;;15.33;11.27;;;;;;;2.10;97.00;151905.25;5017204;28;20450;-75
2021/12/23 12:43:50;;;;;;;15.67;11.10;;;;;;;2.11;96.88;151909.13;5010433;28;20857;-75
2021/12/23 12:47:18;;;;;;;15.67;11.20;;;;;;;2.18;96.34;151927.13;5030641;28;20442;-75
2021/12/23 12:50:10;;;;;;;14.57;9.50;;;;;;;2.14;96.70;151916.84;5040969;28;20442;-75